Time;durP1;ratioP1;P1;durP2;ratioP2;P2;SDS_P1;SDS_P2;PMS_P1;PMS_P2;Temp;Humidity;BMP_temperature;BMP_pressure;BME280_temperature;BME280_humidity;BME280_pressure;Samples;Min_cycle;Max_cycle;Signal;HPM_P1;HPM_P2
2021/10/06 04:45:57;;;;;;;9.82;2.92;;;;;;;18.80;42.21;101595.09;5619963;23;20064;-78
2021/10/06 04:48:23;;;;;;;5.63;2.85;;;;;;;18.70;42.71;101590.03;4905155;29;20044;-77
2021/10/06 04:50:48;;;;;;;6.03;2.55;;;;;;;18.84;42.15;101606.28;4886263;29;20032;-77
2021/10/06 04:53:14;;;;;;;4.90;2.85;;;;;;;18.94;42.15;101616.09;4886216;29;20498;-76
2021/10/06 04:55:39;;;;;;;10.25;3.00;;;;;;;18.87;42.29;101602.81;4883443;29;20041;-76
2021/10/06 04:58:05;;;;;;;4.95;2.30;;;;;;;18.99;42.12;101604.78;4886302;29;20029;-76
2021/10/06 05:00:30;;;;;;;11.20;3.53;;;;;;;19.00;42.00;101611.91;4902684;29;20035;-76
2021/10/06 05:03:14;;;;;;;5.60;2.95;;;;;;;19.04;41.89;101612.81;4897002;29;20043;-77
2021/10/06 05:05:40;;;;;;;6.07;2.40;;;;;;;19.11;41.86;101616.63;4899724;29;20119;-76
2021/10/06 05:08:08;;;;;;;11.88;3.38;;;;;;;19.05;41.96;101623.56;4899394;29;20040;-77
2021/10/06 05:10:34;;;;;;;8.82;2.72;;;;;;;19.11;41.85;101611.06;4899565;29;20066;-77
2021/10/06 05:13:00;;;;;;;5.70;2.40;;;;;;;19.13;41.93;101619.06;4899518;29;20128;-77
2021/10/06 05:15:26;;;;;;;5.47;2.38;;;;;;;19.13;41.77;101628.16;4899452;29;20399;-77
2021/10/06 05:17:51;;;;;;;6.00;2.63;;;;;;;19.10;42.05;101636.34;4899402;29;20032;-78
2021/10/06 05:20:17;;;;;;;6.53;2.40;;;;;;;19.12;41.93;101629.34;4899368;29;20088;-78
2021/10/06 05:22:42;;;;;;;6.80;2.67;;;;;;;19.12;42.06;101626.56;4899379;29;20039;-77
2021/10/06 05:25:08;;;;;;;8.73;2.65;;;;;;;19.18;41.94;101632.66;4899259;29;20036;-77
2021/10/06 05:27:34;;;;;;;9.40;2.67;;;;;;;19.17;41.83;101649.63;4899278;29;20535;-77
2021/10/06 05:30:08;;;;;;;5.15;2.63;;;;;;;19.19;41.83;101633.44;4899330;29;20053;-77
2021/10/06 05:32:34;;;;;;;6.50;2.38;;;;;;;19.38;41.43;101641.97;4899497;29;20112;-77
2021/10/06 05:35:00;;;;;;;5.03;2.60;;;;;;;19.35;41.57;101637.94;4898673;29;20035;-77
2021/10/06 05:37:27;;;;;;;8.23;4.18;;;;;;;19.35;41.63;101635.16;4898708;29;20025;-77
2021/10/06 05:39:53;;;;;;;7.28;3.13;;;;;;;19.37;41.49;101635.59;4899036;29;20067;-78
2021/10/06 05:42:18;;;;;;;8.88;2.72;;;;;;;19.39;41.44;101638.03;4899042;29;20064;-76
2021/10/06 05:44:44;;;;;;;6.72;3.47;;;;;;;19.33;41.52;101639.41;4899040;29;20027;-77
2021/10/06 05:47:10;;;;;;;8.38;2.97;;;;;;;19.40;41.34;101643.22;4898874;29;20048;-78
2021/10/06 05:49:35;;;;;;;5.78;2.60;;;;;;;19.29;41.60;101644.88;4908984;29;20028;-78
2021/10/06 05:52:01;;;;;;;6.15;3.17;;;;;;;19.33;41.68;101651.31;4917528;29;20060;-77
2021/10/06 05:54:27;;;;;;;3.85;2.55;;;;;;;19.34;41.52;101649.34;4917686;29;20044;-78
2021/10/06 05:56:52;;;;;;;7.03;2.85;;;;;;;19.37;41.48;101646.69;4917654;29;20028;-77
2021/10/06 05:59:18;;;;;;;8.73;2.60;;;;;;;19.34;41.58;101647.38;4917516;29;20039;-77
2021/10/06 06:01:43;;;;;;;9.18;3.17;;;;;;;19.35;41.53;101649.03;4917531;29;20031;-77
2021/10/06 06:04:08;;;;;;;10.13;3.65;;;;;;;19.29;41.61;101650.41;4917624;29;20028;-76
2021/10/06 06:06:34;;;;;;;8.23;3.50;;;;;;;19.32;41.52;101649.69;4917454;29;20032;-77
2021/10/06 06:09:00;;;;;;;8.75;4.10;;;;;;;19.29;41.62;101652.38;4917701;29;20059;-77
2021/10/06 06:11:26;;;;;;;5.82;2.70;;;;;;;19.34;41.55;101658.47;4917372;29;20473;-77
2021/10/06 06:13:53;;;;;;;10.80;3.90;;;;;;;19.35;41.47;101662.06;4917358;29;20071;-77
2021/10/06 06:16:18;;;;;;;7.55;2.90;;;;;;;19.36;41.47;101658.94;4917607;29;20427;-76
2021/10/06 06:18:45;;;;;;;6.43;2.55;;;;;;;19.35;41.63;101668.41;4915964;29;20032;-77
2021/10/06 06:21:11;;;;;;;7.68;3.05;;;;;;;19.38;41.54;101670.47;4917185;29;20483;-77
2021/10/06 06:23:36;;;;;;;10.73;2.95;;;;;;;19.33;41.66;101678.22;4917112;29;20119;-76
2021/10/06 06:26:03;;;;;;;9.88;3.30;;;;;;;19.40;41.43;101679.25;4917134;29;20112;-77
2021/10/06 06:28:31;;;;;;;13.98;4.43;;;;;;;19.36;41.77;101689.44;4917171;29;20076;-77
2021/10/06 06:30:57;;;;;;;7.28;2.83;;;;;;;19.35;41.67;101684.25;4917284;29;20044;-77
2021/10/06 06:33:22;;;;;;;6.43;3.10;;;;;;;19.47;41.41;101683.38;4917053;29;20506;-84
2021/10/06 06:35:48;;;;;;;5.88;2.80;;;;;;;19.34;41.66;101688.94;4916953;29;20040;-75
2021/10/06 06:38:13;;;;;;;6.75;3.25;;;;;;;19.36;41.73;101689.44;4917182;29;20035;-75
2021/10/06 06:40:41;;;;;;;6.43;2.72;;;;;;;19.39;41.67;101688.72;4917040;29;20036;-75
2021/10/06 06:43:11;;;;;;;8.27;3.38;;;;;;;19.35;41.94;101693.34;4916930;29;20075;-75
2021/10/06 06:45:37;;;;;;;6.50;3.17;;;;;;;19.46;41.75;101699.22;4916954;29;20048;-79
2021/10/06 06:48:03;;;;;;;9.88;2.97;;;;;;;19.35;42.13;101706.41;4916453;29;20471;-78
2021/10/06 06:50:29;;;;;;;8.50;3.08;;;;;;;19.45;41.79;101708.69;4917053;29;20028;-76
2021/10/06 06:52:54;;;;;;;10.80;2.53;;;;;;;19.55;41.64;101710.16;4917064;29;20688;-77
2021/10/06 06:55:20;;;;;;;9.32;3.20;;;;;;;19.58;41.72;101712.28;4916443;29;20098;-77
2021/10/06 06:57:46;;;;;;;11.10;3.20;;;;;;;19.52;41.83;101714.44;4916665;29;20024;-77
2021/10/06 07:00:12;;;;;;;12.00;4.07;;;;;;;19.55;41.92;101722.06;4916400;29;20028;-77
2021/10/06 07:02:37;;;;;;;8.23;2.97;;;;;;;19.63;41.74;101723.91;4912290;29;20553;-77
2021/10/06 07:05:03;;;;;;;10.48;3.13;;;;;;;19.60;41.81;101721.03;4897535;29;20390;-77
2021/10/06 07:07:29;;;;;;;9.35;3.67;;;;;;;19.62;41.89;101729.81;4897363;29;20092;-77
2021/10/06 07:09:55;;;;;;;10.52;3.65;;;;;;;19.73;41.72;101719.84;4897311;29;20518;-78
2021/10/06 07:12:20;;;;;;;10.52;4.30;;;;;;;19.80;41.59;101725.59;4897606;29;20041;-75
2021/10/06 07:14:48;;;;;;;12.10;3.90;;;;;;;19.73;41.73;101714.31;4897390;29;20029;-75
2021/10/06 07:17:14;;;;;;;9.73;3.55;;;;;;;19.80;41.74;101722.84;4895969;29;20480;-75
2021/10/06 07:19:40;;;;;;;17.25;4.53;;;;;;;19.88;41.69;101721.06;4894958;29;20040;-74
2021/10/06 07:22:06;;;;;;;9.15;3.78;;;;;;;19.84;41.77;101720.97;4894871;29;20036;-75
2021/10/06 07:24:32;;;;;;;10.30;3.20;;;;;;;19.77;42.22;101720.75;4895196;29;20084;-74
2021/10/06 07:26:59;;;;;;;7.53;3.60;;;;;;;19.89;41.97;101720.72;4895335;29;20041;-71
2021/10/06 07:29:25;;;;;;;11.63;3.60;;;;;;;19.97;41.83;101726.47;4895240;29;20033;-74
2021/10/06 07:31:51;;;;;;;11.65;3.45;;;;;;;19.98;41.91;101726.09;4895239;29;20040;-74
2021/10/06 07:34:16;;;;;;;7.95;3.17;;;;;;;20.06;41.62;101722.38;4896189;29;20028;-74
2021/10/06 07:36:42;;;;;;;13.63;3.25;;;;;;;20.08;41.81;101724.78;4895486;29;20036;-74
2021/10/06 07:39:08;;;;;;;9.50;3.53;;;;;;;20.17;41.81;101730.97;4895477;29;20120;-74
2021/10/06 07:41:33;;;;;;;12.30;3.88;;;;;;;20.22;41.77;101728.75;4895327;29;20032;-74
2021/10/06 07:44:00;;;;;;;10.98;3.55;;;;;;;20.27;41.89;101726.91;4896966;29;20035;-74
2021/10/06 07:46:26;;;;;;;11.07;3.60;;;;;;;20.33;41.80;101725.47;4898680;29;20136;-74
2021/10/06 07:48:51;;;;;;;8.85;3.15;;;;;;;20.40;41.80;101732.03;4905461;29;20155;-74
2021/10/06 07:51:18;;;;;;;10.00;4.03;;;;;;;20.49;41.59;101727.16;4907082;29;20410;-74
2021/10/06 07:53:43;;;;;;;16.63;4.68;;;;;;;20.50;41.86;101730.72;4906212;29;20029;-74
2021/10/06 07:56:09;;;;;;;9.32;4.07;;;;;;;20.57;41.74;101730.13;4905524;29;20029;-74
2021/10/06 07:58:35;;;;;;;9.63;5.28;;;;;;;20.66;41.95;101731.53;4907342;29;20032;-74
2021/10/06 08:01:00;;;;;;;12.35;4.80;;;;;;;20.81;41.93;101737.47;4917454;29;20040;-74
2021/10/06 08:03:26;;;;;;;14.05;5.25;;;;;;;20.95;42.00;101733.06;4919626;29;20032;-74
2021/10/06 08:05:52;;;;;;;12.05;4.05;;;;;;;20.99;42.12;101736.72;4919716;29;20115;-74
2021/10/06 08:08:18;;;;;;;14.85;5.38;;;;;;;21.22;41.78;101736.06;4903623;29;20526;-74
2021/10/06 08:10:44;;;;;;;9.80;4.35;;;;;;;21.44;41.61;101731.84;4899465;29;20044;-75
2021/10/06 08:13:10;;;;;;;9.52;4.55;;;;;;;21.49;41.63;101737.94;4900693;29;20037;-75
2021/10/06 08:15:36;;;;;;;10.55;4.93;;;;;;;21.60;41.54;101738.16;4900649;29;20137;-75
2021/10/06 08:18:03;;;;;;;12.98;5.28;;;;;;;21.69;41.44;101737.94;4900652;29;20063;-75
2021/10/06 08:20:32;;;;;;;12.35;4.95;;;;;;;21.82;41.03;101734.66;4905597;29;20040;-75
2021/10/06 08:23:03;;;;;;;9.23;4.43;;;;;;;21.79;41.45;101727.06;4919065;29;20032;-75
2021/10/06 08:25:29;;;;;;;9.52;4.07;;;;;;;21.92;41.11;101733.28;4909367;29;20036;-75
2021/10/06 08:27:54;;;;;;;11.50;5.45;;;;;;;21.92;41.29;101738.06;4910440;29;20099;-75
2021/10/06 08:30:22;;;;;;;7.80;3.88;;;;;;;22.04;41.12;101729.53;4908423;29;20031;-75
2021/10/06 08:32:48;;;;;;;11.60;4.32;;;;;;;22.06;41.08;101735.53;4911073;29;20444;-74
2021/10/06 08:35:13;;;;;;;11.48;3.72;;;;;;;22.08;41.07;101747.94;4918920;29;20036;-74
2021/10/06 08:37:39;;;;;;;13.25;4.80;;;;;;;22.02;41.27;101751.38;4919149;29;20546;-74
2021/10/06 08:40:05;;;;;;;6.78;3.08;;;;;;;22.10;40.96;101728.91;4919011;29;20032;-74
2021/10/06 08:42:32;;;;;;;7.63;3.05;;;;;;;22.14;41.06;101731.75;4918983;29;20107;-74
2021/10/06 08:45:06;;;;;;;9.77;3.30;;;;;;;22.21;41.18;101728.28;4918995;29;20032;-75
2021/10/06 08:47:35;;;;;;;8.25;2.83;;;;;;;22.22;41.08;101727.13;4918661;29;20494;-74
2021/10/06 08:50:00;;;;;;;7.43;2.20;;;;;;;22.29;41.05;101732.81;4918907;29;20394;-74
2021/10/06 08:52:26;;;;;;;10.02;3.17;;;;;;;22.41;40.56;101730.69;4911315;29;20107;-75
2021/10/06 08:54:52;;;;;;;6.28;2.42;;;;;;;22.45;40.48;101727.16;4890263;29;20040;-75
2021/10/06 08:57:18;;;;;;;5.63;2.00;;;;;;;22.62;40.37;101730.25;4892125;29;20033;-76
2021/10/06 08:59:44;;;;;;;6.55;2.40;;;;;;;22.65;40.25;101714.78;4889254;29;20039;-76
2021/10/06 09:02:14;;;;;;;8.40;2.20;;;;;;;22.64;40.36;101710.38;4890547;29;20048;-76
2021/10/06 09:04:41;;;;;;;7.63;2.05;;;;;;;22.74;40.04;101715.31;4890781;29;20629;-77
2021/10/06 09:07:08;;;;;;;7.15;2.17;;;;;;;22.69;40.14;101701.72;4891862;29;20115;-76
2021/10/06 09:09:36;;;;;;;5.95;2.20;;;;;;;22.82;39.97;101693.94;4898168;29;20029;-76
2021/10/06 09:12:08;;;;;;;5.72;2.33;;;;;;;22.83;40.16;101696.41;4898259;29;20025;-76
2021/10/06 09:14:40;;;;;;;6.15;2.20;;;;;;;22.83;40.19;101703.94;4883919;29;20016;-76
2021/10/06 09:17:09;;;;;;;6.97;2.33;;;;;;;22.92;39.95;101699.75;4884580;29;20618;-76
2021/10/06 09:19:38;;;;;;;8.90;3.10;;;;;;;22.97;39.93;101681.88;4901926;29;20039;-76
2021/10/06 09:22:10;;;;;;;7.40;2.53;;;;;;;23.06;39.79;101674.09;4889981;29;20043;-75
2021/10/06 09:24:52;;;;;;;6.07;2.75;;;;;;;23.16;39.67;101684.56;4889481;29;20042;-73
2021/10/06 09:27:29;;;;;;;5.18;1.80;;;;;;;23.17;39.79;101679.81;4902336;29;20107;-74
2021/10/06 09:30:01;;;;;;;4.95;1.60;;;;;;;23.18;39.63;101679.41;4901157;29;20415;-74
2021/10/06 09:32:41;;;;;;;6.97;1.80;;;;;;;23.12;39.76;101682.91;4902004;29;20103;-73
2021/10/06 09:35:20;;;;;;;;;;;;;;;23.15;39.62;101688.53;4892085;29;20032;-73
2021/10/06 09:37:56;;;;;;;5.00;1.67;;;;;;;23.25;39.60;101714.97;4901687;29;19975;-73
2021/10/06 09:40:24;;;;;;;6.80;2.22;;;;;;;23.39;39.69;101719.94;4884719;29;20033;-73
2021/10/06 09:42:54;;;;;;;8.13;2.55;;;;;;;23.49;39.53;101722.88;4883258;29;20072;-73
2021/10/06 09:45:24;;;;;;;9.00;2.28;;;;;;;23.53;39.61;101714.56;4886403;29;20040;-73
2021/10/06 09:48:04;;;;;;;7.82;2.70;;;;;;;23.57;39.49;101718.19;4901725;29;20044;-74
2021/10/06 09:50:32;;;;;;;4.80;1.67;;;;;;;23.66;39.31;101712.38;4893376;29;20051;-74
2021/10/06 09:53:12;;;;;;;5.60;1.40;;;;;;;23.76;39.61;101706.91;4892470;29;20036;-74
2021/10/06 09:55:40;;;;;;;3.05;1.50;;;;;;;23.93;39.00;101699.94;4898454;29;20368;-75
2021/10/06 09:58:07;;;;;;;3.63;1.52;;;;;;;23.99;39.14;101694.81;4906678;29;20043;-75
2021/10/06 10:00:34;;;;;;;6.80;1.70;;;;;;;23.99;39.02;101698.41;4910634;29;20098;-75
2021/10/06 10:03:00;;;;;;;10.48;2.33;;;;;;;24.09;39.11;101699.72;4910455;29;20520;-75
2021/10/06 10:05:26;;;;;;;6.65;2.42;;;;;;;24.27;38.53;101703.50;4911785;29;20028;-74
2021/10/06 10:07:53;;;;;;;4.80;1.75;;;;;;;24.29;38.57;101717.09;4898576;29;20034;-75
2021/10/06 10:10:19;;;;;;;7.20;1.88;;;;;;;24.27;38.45;101720.28;4899349;29;20570;-75
2021/10/06 10:12:45;;;;;;;5.22;2.58;;;;;;;24.25;38.70;101728.22;4902636;29;20404;-75
2021/10/06 10:15:12;;;;;;;7.53;2.08;;;;;;;24.18;38.56;101722.56;4898451;29;20039;-75
2021/10/06 10:17:38;;;;;;;11.07;2.55;;;;;;;24.20;38.41;101719.41;4898348;29;20579;-74
2021/10/06 10:20:11;;;;;;;14.10;3.17;;;;;;;24.09;38.72;101717.25;4898261;29;20115;-73
2021/10/06 10:22:41;;;;;;;3.95;1.75;;;;;;;24.22;38.53;101714.22;4897906;29;20032;-74
2021/10/06 10:25:21;;;;;;;10.95;2.00;;;;;;;24.29;38.58;101711.50;4898361;29;20416;-73
2021/10/06 10:28:07;;;;;;;7.05;2.00;;;;;;;24.29;38.40;101712.31;4898294;29;20033;-74
2021/10/06 10:30:35;;;;;;;12.07;2.50;;;;;;;24.31;38.55;101709.91;4898206;29;20033;-74
2021/10/06 10:33:00;;;;;;;6.20;1.77;;;;;;;24.31;38.45;101704.34;4898402;29;20024;-73
2021/10/06 10:35:32;;;;;;;6.30;1.90;;;;;;;24.42;38.12;101706.47;4898146;29;20051;-73
2021/10/06 10:38:00;;;;;;;8.98;1.77;;;;;;;24.44;38.21;101712.47;4898071;29;20028;-74
2021/10/06 10:40:29;;;;;;;17.40;2.28;;;;;;;24.32;38.19;101705.97;4897979;29;20365;-73
2021/10/06 10:43:08;;;;;;;10.63;3.03;;;;;;;24.51;38.20;101706.97;4898264;29;20416;-73
2021/10/06 10:45:36;;;;;;;10.40;1.92;;;;;;;24.54;38.13;101711.75;4898103;29;20393;-74
2021/10/06 10:48:03;;;;;;;8.23;2.10;;;;;;;24.35;38.25;101721.97;4897963;29;20044;-74
2021/10/06 10:50:44;;;;;;;8.02;1.98;;;;;;;24.33;38.10;101713.19;4897919;29;20069;-74
2021/10/06 10:53:10;;;;;;;8.18;2.10;;;;;;;24.31;38.25;101709.91;4897819;29;20112;-74
2021/10/06 10:55:52;;;;;;;3.75;1.95;;;;;;;24.48;37.61;101707.72;4897875;29;20387;-75
2021/10/06 10:58:43;;;;;;;5.93;1.48;;;;;;;24.46;38.14;101704.50;4897938;29;20040;-73
2021/10/06 11:01:15;;;;;;;15.07;2.60;;;;;;;24.61;37.88;101711.81;4897932;29;20028;-73
2021/10/06 11:04:19;;;;;;;26.20;5.97;;;;;;;24.74;37.50;101712.34;4897715;29;20491;-73
2021/10/06 11:07:17;;;;;;;10.02;1.83;;;;;;;24.77;37.75;101715.16;4897650;29;20057;-74
2021/10/06 11:09:45;;;;;;;9.07;2.00;;;;;;;24.82;37.50;101705.63;4897544;29;20425;-74
2021/10/06 11:12:11;;;;;;;12.50;2.05;;;;;;;24.70;38.14;101703.91;4897613;29;20052;-75
2021/10/06 11:14:40;;;;;;;5.75;1.65;;;;;;;24.87;37.68;101694.09;4897555;29;20116;-74
2021/10/06 11:17:16;;;;;;;7.55;1.90;;;;;;;24.85;37.97;101693.66;4897678;29;20028;-74
2021/10/06 11:19:56;;;;;;;7.88;1.95;;;;;;;24.80;37.80;101694.03;4897699;29;20036;-73
2021/10/06 11:22:24;;;;;;;14.73;2.00;;;;;;;24.83;37.48;101694.06;4897546;29;20111;-73
2021/10/06 11:25:01;;;;;;;6.55;2.08;;;;;;;24.79;37.39;101695.22;4897426;29;20032;-75
2021/10/06 11:27:42;;;;;;;9.25;2.22;;;;;;;24.72;37.74;101695.97;4897702;29;20080;-73
2021/10/06 11:30:11;;;;;;;6.65;2.38;;;;;;;24.71;37.50;101702.75;4897439;29;20103;-73
2021/10/06 11:32:46;;;;;;;8.38;2.00;;;;;;;24.57;37.56;101702.63;4894069;29;20047;-74
2021/10/06 11:35:11;;;;;;;11.05;3.08;;;;;;;24.52;37.76;101708.56;4901389;29;20040;-74
2021/10/06 11:37:37;;;;;;;8.68;2.70;;;;;;;24.63;37.54;101715.03;4901248;29;20444;-73
2021/10/06 11:40:08;;;;;;;8.35;1.63;;;;;;;24.51;37.62;101706.97;4901297;29;20035;-73
2021/10/06 11:42:34;;;;;;;5.82;1.40;;;;;;;24.58;37.73;101707.03;4901140;29;20028;-73
2021/10/06 11:45:00;;;;;;;7.88;1.77;;;;;;;24.68;37.63;101705.50;4901228;29;20029;-73
2021/10/06 11:47:25;;;;;;;6.60;1.42;;;;;;;24.75;37.28;101689.59;4900897;29;20448;-74
2021/10/06 11:49:51;;;;;;;8.98;1.85;;;;;;;24.80;37.71;101692.03;4901177;29;20039;-74
2021/10/06 11:52:18;;;;;;;5.70;1.88;;;;;;;24.63;38.21;101704.66;4901134;29;20029;-74
2021/10/06 11:54:48;;;;;;;4.63;1.50;;;;;;;24.74;37.30;101698.38;4901315;29;20029;-74
2021/10/06 11:57:14;;;;;;;3.45;1.10;;;;;;;24.68;37.72;101711.09;4901022;29;20028;-74
2021/10/06 11:59:44;;;;;;;7.35;1.20;;;;;;;24.55;38.02;101708.56;4900932;29;20033;-74
2021/10/06 12:02:11;;;;;;;5.70;1.45;;;;;;;24.52;37.93;101719.72;4901095;29;20036;-74
2021/10/06 12:04:39;;;;;;;4.72;1.13;;;;;;;24.50;38.30;101724.91;4901080;29;20476;-73
2021/10/06 12:07:12;;;;;;;4.05;1.13;;;;;;;24.46;38.62;101727.66;4900830;29;20020;-74
2021/10/06 12:09:39;;;;;;;4.13;1.00;;;;;;;24.37;38.52;101727.16;4900718;29;20032;-74
2021/10/06 12:12:09;;;;;;;4.55;1.33;;;;;;;24.22;38.85;101723.41;4900756;29;20111;-74
2021/10/06 12:14:42;;;;;;;7.63;1.63;;;;;;;24.05;39.14;101730.41;4899377;29;20428;-74
2021/10/06 12:17:12;;;;;;;2.53;0.93;;;;;;;24.12;38.64;101724.09;4899675;29;20029;-73
2021/10/06 12:19:39;;;;;;;6.15;1.08;;;;;;;24.08;38.74;101715.66;4899624;29;20032;-74
2021/10/06 12:22:06;;;;;;;4.82;1.45;;;;;;;24.14;38.92;101706.97;4899424;29;20040;-73
2021/10/06 12:24:32;;;;;;;4.47;1.10;;;;;;;23.96;39.02;101707.56;4899486;29;20028;-73
2021/10/06 12:26:58;;;;;;;3.17;1.30;;;;;;;23.84;39.33;101712.59;4899546;29;20039;-73
2021/10/06 12:29:27;;;;;;;5.10;1.08;;;;;;;23.69;39.72;101706.03;4899357;29;20039;-73
2021/10/06 12:31:55;;;;;;;5.53;1.60;;;;;;;23.75;39.71;101702.53;4900515;29;20040;-74
2021/10/06 12:34:24;;;;;;;7.85;1.75;;;;;;;23.88;39.35;101713.41;4900635;29;20036;-73
2021/10/06 12:36:55;;;;;;;6.38;1.95;;;;;;;23.76;40.07;101701.34;4900544;29;20032;-74
2021/10/06 12:39:26;;;;;;;8.50;1.60;;;;;;;23.86;39.64;101705.44;4900266;29;20028;-72
2021/10/06 12:41:55;;;;;;;7.22;2.30;;;;;;;23.82;39.66;101699.03;4898882;29;20442;-73
2021/10/06 12:44:32;;;;;;;6.32;1.25;;;;;;;23.65;40.17;101691.22;4899889;29;20111;-74
2021/10/06 12:46:59;;;;;;;5.70;1.40;;;;;;;23.68;40.24;101694.06;4900018;29;20503;-73
2021/10/06 12:49:27;;;;;;;4.28;1.27;;;;;;;23.61;40.20;101679.22;4900142;29;20032;-73
2021/10/06 12:52:04;;;;;;;4.38;1.80;;;;;;;23.52;40.28;101680.28;4900021;29;20029;-73
2021/10/06 12:54:32;;;;;;;4.55;1.30;;;;;;;23.60;40.34;101677.59;4900074;29;20036;-73
2021/10/06 12:57:04;;;;;;;7.57;1.90;;;;;;;23.53;40.58;101669.94;4900216;29;20440;-74
2021/10/06 12:59:40;;;;;;;6.57;1.80;;;;;;;23.49;40.59;101669.06;4899933;29;20029;-74
2021/10/06 13:02:11;;;;;;;6.05;2.17;;;;;;;23.36;40.83;101662.94;4899685;29;20069;-74
2021/10/06 13:04:39;;;;;;;3.70;1.10;;;;;;;23.42;40.90;101664.19;4899844;29;20040;-74
2021/10/06 13:07:06;;;;;;;7.00;1.70;;;;;;;23.79;39.94;101666.28;4899807;29;20133;-74
2021/10/06 13:09:33;;;;;;;7.15;1.33;;;;;;;23.95;39.40;101663.25;4899752;29;20037;-73
2021/10/06 13:12:01;;;;;;;7.00;1.58;;;;;;;23.82;39.62;101671.13;4891802;29;20420;-75
2021/10/06 13:14:27;;;;;;;9.02;2.05;;;;;;;23.44;40.42;101661.06;4889984;29;20036;-75
2021/10/06 13:16:52;;;;;;;8.60;1.50;;;;;;;23.24;41.18;101658.41;4894657;29;20051;-73
2021/10/06 13:19:19;;;;;;;6.75;1.80;;;;;;;23.12;41.27;101661.41;4901090;29;20061;-74
2021/10/06 13:21:48;;;;;;;4.25;1.40;;;;;;;23.07;41.56;101653.38;4890817;29;20047;-74
2021/10/06 13:24:15;;;;;;;4.88;1.30;;;;;;;23.12;41.56;101655.03;4905732;29;20099;-74
2021/10/06 13:26:46;;;;;;;5.85;1.55;;;;;;;23.14;41.57;101650.69;4906020;29;20028;-75
2021/10/06 13:29:12;;;;;;;6.10;1.85;;;;;;;23.08;41.86;101652.19;4892220;29;21031;-75
2021/10/06 13:31:38;;;;;;;5.53;1.33;;;;;;;23.15;41.59;101646.72;4891569;29;20028;-74
2021/10/06 13:34:03;;;;;;;11.38;5.05;;;;;;;23.22;41.57;101646.81;4892053;29;20472;-75
2021/10/06 13:36:29;;;;;;;7.28;2.22;;;;;;;23.32;41.38;101645.34;4896839;29;20765;-74
2021/10/06 13:38:55;;;;;;;6.95;2.15;;;;;;;23.18;41.64;101645.16;4888006;29;20032;-74
2021/10/06 13:41:20;;;;;;;10.18;2.38;;;;;;;23.07;42.14;101642.25;4892050;29;20383;-74
2021/10/06 13:43:46;;;;;;;8.20;2.63;;;;;;;23.23;42.03;101648.44;4884525;29;20029;-74
2021/10/06 13:46:11;;;;;;;6.43;2.25;;;;;;;23.21;42.05;101642.44;4905996;29;20040;-73
2021/10/06 13:48:38;;;;;;;7.07;2.53;;;;;;;23.28;41.96;101638.16;4917894;29;20036;-74
2021/10/06 13:51:09;;;;;;;15.43;2.50;;;;;;;23.12;42.83;101632.72;4914673;29;20056;-73
2021/10/06 13:53:35;;;;;;;8.52;3.38;;;;;;;23.37;42.00;101633.06;4883720;29;20032;-74
2021/10/06 13:56:01;;;;;;;13.98;2.45;;;;;;;23.37;42.39;101638.66;4897205;29;20036;-73
2021/10/06 13:58:26;;;;;;;14.68;3.65;;;;;;;23.39;41.91;101639.88;4900549;29;20032;-74
2021/10/06 14:00:53;;;;;;;11.15;4.10;;;;;;;23.40;42.14;101632.31;4883122;29;20810;-73
2021/10/06 14:03:19;;;;;;;7.95;2.47;;;;;;;23.46;42.00;101622.44;4882421;29;21156;-74
2021/10/06 14:05:45;;;;;;;9.60;3.00;;;;;;;23.48;42.19;101631.22;4886736;29;20028;-73
2021/10/06 14:08:10;;;;;;;13.68;3.55;;;;;;;23.51;42.43;101630.47;4897901;29;20032;-74
2021/10/06 14:10:36;;;;;;;9.27;4.13;;;;;;;23.51;42.53;101625.69;4891285;29;20032;-74
2021/10/06 14:13:02;;;;;;;10.40;3.20;;;;;;;23.55;42.76;101622.94;4898034;29;21015;-74
2021/10/06 14:15:28;;;;;;;8.38;2.58;;;;;;;23.61;42.77;101609.47;4897450;29;20119;-74
2021/10/06 14:17:54;;;;;;;10.73;3.13;;;;;;;23.60;42.63;101617.06;4905846;29;20031;-74
2021/10/06 14:20:20;;;;;;;10.93;2.65;;;;;;;23.69;42.34;101600.81;4916716;29;20135;-74
2021/10/06 14:22:47;;;;;;;11.55;2.70;;;;;;;23.78;42.43;101608.88;4916705;29;20036;-74
2021/10/06 14:25:14;;;;;;;10.93;3.13;;;;;;;23.71;42.72;101600.41;4916699;29;20439;-73
2021/10/06 14:27:40;;;;;;;7.80;2.67;;;;;;;23.77;42.62;101601.69;4916594;29;20511;-74
2021/10/06 14:30:07;;;;;;;8.15;2.72;;;;;;;23.79;42.42;101600.13;4916686;29;20036;-73
2021/10/06 14:32:32;;;;;;;11.70;3.03;;;;;;;23.82;42.54;101597.75;4916491;29;20043;-73
2021/10/06 14:34:59;;;;;;;8.43;2.60;;;;;;;23.81;42.61;101594.19;4916696;29;20395;-74
2021/10/06 14:37:26;;;;;;;7.25;2.42;;;;;;;23.81;42.71;101594.19;4916457;29;20387;-74
2021/10/06 14:39:51;;;;;;;11.27;3.53;;;;;;;23.88;42.44;101590.63;4916700;29;20067;-74
2021/10/06 14:42:18;;;;;;;5.75;2.10;;;;;;;23.86;42.29;101593.81;4916176;29;20603;-74
2021/10/06 14:44:43;;;;;;;7.38;3.03;;;;;;;23.88;42.61;101590.63;4916118;29;20036;-73
2021/10/06 14:47:09;;;;;;;10.93;3.55;;;;;;;23.88;42.30;101580.28;4915970;29;20060;-73
2021/10/06 14:49:36;;;;;;;11.35;2.95;;;;;;;23.91;42.54;101576.72;4916123;29;20043;-74
2021/10/06 14:52:03;;;;;;;10.52;6.43;;;;;;;23.80;42.72;101576.63;4915952;29;20028;-74
2021/10/06 14:54:31;;;;;;;10.57;2.15;;;;;;;23.92;42.55;101580.31;4915800;29;20044;-71
2021/10/06 14:57:00;;;;;;;6.68;2.75;;;;;;;23.88;42.86;101563.53;4916161;29;20028;-72
2021/10/06 14:59:26;;;;;;;18.23;3.33;;;;;;;23.93;42.65;101562.38;4916016;29;20035;-72
2021/10/06 15:01:54;;;;;;;7.32;2.50;;;;;;;23.94;42.58;101561.19;4916023;29;20063;-73
2021/10/06 15:04:20;;;;;;;9.90;2.47;;;;;;;24.02;42.30;101554.47;4915987;29;20032;-72
2021/10/06 15:06:46;;;;;;;9.05;2.40;;;;;;;23.97;42.58;101549.28;4915852;29;20345;-72
2021/10/06 15:09:19;;;;;;;7.05;2.85;;;;;;;24.03;42.34;101542.94;4915705;29;20431;-72
2021/10/06 15:11:44;;;;;;;7.03;1.90;;;;;;;24.08;42.47;101550.16;4915864;29;20035;-71
2021/10/06 15:14:10;;;;;;;12.18;2.45;;;;;;;24.10;42.40;101547.78;4915937;29;20415;-71
2021/10/06 15:16:36;;;;;;;13.27;4.18;;;;;;;24.06;42.65;101544.97;4915876;29;20431;-71
2021/10/06 15:19:01;;;;;;;6.45;3.00;;;;;;;24.08;42.71;101542.56;4915748;29;20035;-84
2021/10/06 15:21:27;;;;;;;9.73;2.33;;;;;;;24.19;42.34;101536.28;4915759;29;20039;-73
2021/10/06 15:23:52;;;;;;;8.45;4.03;;;;;;;24.15;42.69;101535.44;4909233;29;20105;-70
2021/10/06 15:26:19;;;;;;;32.17;28.48;;;;;;;24.10;42.77;101539.38;4905458;29;20091;-71
2021/10/06 15:28:47;;;;;;;13.20;6.30;;;;;;;24.08;42.87;101534.19;4906776;29;20044;-72
2021/10/06 15:31:13;;;;;;;9.48;4.57;;;;;;;24.12;42.62;101530.66;4910667;29;20028;-70
2021/10/06 15:33:39;;;;;;;11.35;7.43;;;;;;;24.12;43.05;101525.06;4915598;29;20087;-72
2021/10/06 15:36:04;;;;;;;9.25;5.82;;;;;;;24.11;42.73;101538.22;4915684;29;20039;-73
2021/10/06 15:38:30;;;;;;;10.75;3.22;;;;;;;24.12;42.94;101537.03;4915474;29;20024;-73
2021/10/06 15:40:56;;;;;;;7.70;2.15;;;;;;;24.13;42.91;101533.06;4915506;29;20111;-73
2021/10/06 15:43:22;;;;;;;7.45;2.22;;;;;;;24.12;42.95;101525.88;4915510;29;20415;-83
2021/10/06 15:45:49;;;;;;;10.85;3.38;;;;;;;24.15;43.11;101525.09;4914050;29;20390;-72
